Time;durP1;ratioP1;P1;durP2;ratioP2;P2;SDS_P1;SDS_P2;PMS_P1;PMS_P2;Temp;Humidity;BMP_temperature;BMP_pressure;BME280_temperature;BME280_humidity;BME280_pressure;Samples;Min_cycle;Max_cycle;Signal;HPM_P1;HPM_P2
2022/10/18 00:01:06;;;;;;;5.47;4.93;;;16.10;99.90;;;;;;5082044;28;21123;-81
2022/10/18 00:03:35;;;;;;;8.57;4.30;;;16.00;99.90;;;;;;5079481;28;20870;-81
2022/10/18 00:06:04;;;;;;;5.27;4.87;;;16.00;99.90;;;;;;5081541;28;20461;-80
2022/10/18 00:08:33;;;;;;;4.10;3.80;;;16.10;99.90;;;;;;5081271;28;20488;-81
2022/10/18 00:11:02;;;;;;;7.80;5.30;;;16.10;99.90;;;;;;5082535;28;20619;-81
2022/10/18 00:13:30;;;;;;;4.73;4.33;;;16.00;1.00;;;;;;5080618;28;20478;-81
2022/10/18 00:16:00;;;;;;;7.43;4.03;;;16.20;1.00;;;;;;5083009;28;20487;-80
2022/10/18 00:18:29;;;;;;;3.77;3.47;;;16.50;99.90;;;;;;5078144;28;20451;-80
2022/10/18 00:20:59;;;;;;;5.00;4.37;;;16.70;99.90;;;;;;5081727;28;20577;-81
2022/10/18 00:23:28;;;;;;;3.97;3.77;;;16.80;1.00;;;;;;5082593;28;20526;-82
2022/10/18 00:26:03;;;;;;;5.20;4.70;;;16.80;99.90;;;;;;5081902;28;20516;-82
2022/10/18 00:28:32;;;;;;;6.03;4.33;;;16.90;99.90;;;;;;5080740;28;20555;-81
2022/10/18 00:31:10;;;;;;;8.03;5.27;;;17.00;1.00;;;;;;5080596;28;20482;-81
2022/10/18 00:33:38;;;;;;;4.33;3.93;;;17.00;99.90;;;;;;5081142;28;20492;-80
2022/10/18 00:36:07;;;;;;;5.20;3.83;;;17.20;99.90;;;;;;5081476;28;20461;-82
2022/10/18 00:38:35;;;;;;;4.77;3.70;;;17.10;99.90;;;;;;5081162;28;20639;-80
2022/10/18 00:41:07;;;;;;;8.03;3.80;;;17.00;1.00;;;;;;5079356;28;21439;-81
2022/10/18 00:43:54;;;;;;;6.00;4.10;;;17.10;93.70;;;;;;5083515;28;20549;-81
2022/10/18 00:46:22;;;;;;;3.97;3.63;;;17.10;99.90;;;;;;5088020;28;20513;-80
2022/10/18 00:48:51;;;;;;;4.83;4.33;;;17.00;1.00;;;;;;5080833;28;20552;-81
2022/10/18 00:51:27;;;;;;;4.93;4.53;;;17.10;99.90;;;;;;5081127;28;20547;-80
2022/10/18 00:53:55;;;;;;;5.30;3.97;;;17.20;99.90;;;;;;5081183;28;20510;-80
2022/10/18 00:56:25;;;;;;;4.90;4.10;;;17.20;1.00;;;;;;5078650;28;21020;-80
2022/10/18 00:58:54;;;;;;;3.77;3.40;;;17.20;1.00;;;;;;5076307;28;20522;-82
2022/10/18 01:01:22;;;;;;;4.40;3.93;;;17.20;1.00;;;;;;5077944;28;20458;-80
2022/10/18 01:03:56;;;;;;;5.37;3.97;;;17.10;1.00;;;;;;5080013;28;20449;-80
2022/10/18 01:06:27;;;;;;;4.03;3.77;;;17.20;1.00;;;;;;5081300;28;20448;-81
2022/10/18 01:09:07;;;;;;;4.13;3.77;;;17.10;99.90;;;;;;5078532;28;20488;-79
2022/10/18 01:11:58;;;;;;;4.30;3.90;;;17.00;99.90;;;;;;5078464;28;20475;-82
2022/10/18 01:14:38;;;;;;;4.30;4.00;;;17.00;72.00;;;;;;5079509;28;20846;-80
2022/10/18 01:17:17;;;;;;;4.90;3.60;;;16.90;1.00;;;;;;5080207;28;20463;-80
2022/10/18 01:20:09;;;;;;;4.60;3.77;;;16.80;99.90;;;;;;5080368;28;20504;-82
2022/10/18 01:22:43;;;;;;;3.70;3.50;;;16.80;99.90;;;;;;5082267;28;20463;-80
2022/10/18 01:25:24;;;;;;;11.00;4.50;;;16.80;1.00;;;;;;5079186;28;20486;-81
2022/10/18 01:28:01;;;;;;;8.60;4.43;;;16.90;1.00;;;;;;5080384;28;20448;-81
2022/10/18 01:30:40;;;;;;;5.20;3.03;;;17.00;1.00;;;;;;5081978;28;20562;-80
2022/10/18 01:33:18;;;;;;;5.07;3.23;;;17.10;99.90;;;;;;5078467;28;20552;-80
2022/10/18 01:35:50;;;;;;;4.00;3.70;;;17.00;99.90;;;;;;5084632;28;20540;-80
2022/10/18 01:38:20;;;;;;;4.17;3.30;;;16.90;1.00;;;;;;5081304;28;20445;-82
2022/10/18 01:40:51;;;;;;;7.23;3.50;;;17.00;1.00;;;;;;5080515;28;20485;-81
2022/10/18 01:43:21;;;;;;;6.40;3.77;;;17.10;99.90;;;;;;5081086;28;20544;-81
2022/10/18 01:45:53;;;;;;;3.87;3.67;;;17.00;99.90;;;;;;5083064;28;20472;-80
2022/10/18 01:48:22;;;;;;;3.30;3.10;;;16.80;99.90;;;;;;5082260;28;20513;-81
2022/10/18 01:50:51;;;;;;;4.07;3.70;;;16.80;99.90;;;;;;5078973;28;20591;-80
2022/10/18 01:53:30;;;;;;;4.40;4.10;;;16.80;1.00;;;;;;5079640;28;20475;-81
2022/10/18 01:56:20;;;;;;;7.33;3.93;;;16.70;99.90;;;;;;5081526;28;20476;-83
2022/10/18 01:59:05;;;;;;;4.90;3.97;;;16.70;60.40;;;;;;5081249;28;20460;-81
2022/10/18 02:01:43;;;;;;;6.40;4.07;;;16.70;1.00;;;;;;5086074;28;20484;-81
2022/10/18 02:04:31;;;;;;;4.57;4.17;;;16.60;93.80;;;;;;5084150;28;20544;-84
2022/10/18 02:07:06;;;;;;;4.90;4.50;;;16.70;1.00;;;;;;5083816;28;22564;-82
2022/10/18 02:09:41;;;;;;;4.17;3.80;;;16.60;99.90;;;;;;5081640;28;21104;-81
2022/10/18 02:12:11;;;;;;;6.17;4.00;;;16.60;99.90;;;;;;5083076;28;20510;-80
2022/10/18 02:14:41;;;;;;;4.57;4.17;;;16.60;99.90;;;;;;5082445;28;21192;-80
2022/10/18 02:17:12;;;;;;;5.60;4.80;;;16.50;1.00;;;;;;5081277;28;20493;-80
2022/10/18 02:19:43;;;;;;;4.47;4.00;;;16.60;1.00;;;;;;5082866;28;20501;-81
2022/10/18 02:22:13;;;;;;;4.20;3.33;;;16.60;5.20;;;;;;5084188;28;20850;-80
2022/10/18 02:24:44;;;;;;;4.80;4.40;;;16.60;99.90;;;;;;5080409;28;21293;-81
2022/10/18 02:27:13;;;;;;;4.50;3.70;;;16.60;99.90;;;;;;5083504;28;20473;-81
2022/10/18 02:29:42;;;;;;;7.80;4.27;;;16.60;99.90;;;;;;5083721;28;21091;-80
2022/10/18 02:32:17;;;;;;;5.13;3.93;;;16.50;1.00;;;;;;5082411;28;20456;-80
2022/10/18 02:34:49;;;;;;;5.30;4.87;;;16.50;1.00;;;;;;5078248;28;20643;-80
2022/10/18 02:37:17;;;;;;;3.60;3.33;;;16.50;99.90;;;;;;5080159;28;20547;-80
2022/10/18 02:39:48;;;;;;;7.87;4.07;;;16.60;1.00;;;;;;5083177;28;20485;-80
2022/10/18 02:42:16;;;;;;;6.63;4.40;;;16.60;11.90;;;;;;5092756;28;21095;-80
2022/10/18 02:44:44;;;;;;;4.90;4.60;;;16.70;1.00;;;;;;5090406;28;20456;-80
2022/10/18 02:47:14;;;;;;;4.70;3.97;;;16.70;99.90;;;;;;5078945;28;20472;-81
2022/10/18 02:49:42;;;;;;;4.10;3.70;;;16.90;1.00;;;;;;5081679;28;20487;-80
2022/10/18 02:52:10;;;;;;;4.60;3.93;;;17.00;1.00;;;;;;5080378;28;20493;-80
2022/10/18 02:54:38;;;;;;;4.30;3.70;;;17.10;1.00;;;;;;5084915;28;21139;-80
2022/10/18 02:57:06;;;;;;;4.07;3.77;;;17.10;1.00;;;;;;5092073;28;20463;-79
2022/10/18 02:59:34;;;;;;;5.73;3.47;;;17.00;1.00;;;;;;5087903;28;21008;-80
2022/10/18 03:02:02;;;;;;;5.50;3.90;;;17.20;1.00;;;;;;5088493;28;20551;-81
2022/10/18 03:04:32;;;;;;;4.07;3.67;;;17.20;1.00;;;;;;5090467;28;20473;-82
2022/10/18 03:07:00;;;;;;;5.73;3.60;;;17.20;99.90;;;;;;5083226;28;20489;-82
2022/10/18 03:09:29;;;;;;;4.97;4.27;;;17.40;16.10;;;;;;5082632;28;20462;-81
2022/10/18 03:11:58;;;;;;;5.20;3.70;;;17.20;99.90;;;;;;5078568;28;20452;-81
2022/10/18 03:14:26;;;;;;;3.80;3.50;;;17.30;4.40;;;;;;5081812;28;20588;-80
2022/10/18 03:16:54;;;;;;;4.70;3.70;;;17.30;95.20;;;;;;5082992;28;20515;-80
2022/10/18 03:19:22;;;;;;;4.30;3.43;;;17.30;1.00;;;;;;5082163;28;20469;-80
2022/10/18 03:21:51;;;;;;;3.37;2.83;;;17.30;99.90;;;;;;5079863;28;20460;-80
2022/10/18 03:24:19;;;;;;;3.60;3.40;;;17.30;99.90;;;;;;5077147;28;20452;-83
2022/10/18 03:26:48;;;;;;;4.90;3.47;;;17.30;1.00;;;;;;5083995;28;20530;-84
2022/10/18 03:29:16;;;;;;;3.50;3.30;;;17.20;99.90;;;;;;5082309;28;20615;-81
2022/10/18 03:31:44;;;;;;;3.30;3.10;;;17.20;13.10;;;;;;5083185;28;20514;-81
2022/10/18 03:34:12;;;;;;;6.03;3.60;;;17.20;99.90;;;;;;5089138;28;21035;-83
2022/10/18 03:36:40;;;;;;;3.77;2.90;;;17.30;36.70;;;;;;5082456;28;20453;-81
2022/10/18 03:39:11;;;;;;;3.70;3.27;;;17.30;1.00;;;;;;5084006;28;21082;-81
2022/10/18 03:41:39;;;;;;;4.43;3.70;;;17.30;1.00;;;;;;5081187;28;20555;-81
2022/10/18 03:44:07;;;;;;;4.43;3.60;;;17.30;1.00;;;;;;5082312;28;20543;-82
2022/10/18 03:46:35;;;;;;;3.80;3.03;;;17.40;1.00;;;;;;5081049;28;20469;-81
2022/10/18 03:49:04;;;;;;;7.03;3.10;;;17.30;99.90;;;;;;5080533;28;20477;-81
2022/10/18 03:51:32;;;;;;;3.57;3.33;;;17.30;94.00;;;;;;5081658;28;20462;-80
2022/10/18 03:54:00;;;;;;;3.30;3.10;;;17.40;1.00;;;;;;5079910;28;20546;-83
2022/10/18 03:56:29;;;;;;;4.27;4.07;;;17.40;1.00;;;;;;5081578;28;21001;-81
2022/10/18 03:58:57;;;;;;;4.80;3.33;;;17.40;1.00;;;;;;5083169;28;20485;-80
2022/10/18 04:01:25;;;;;;;3.53;3.20;;;17.40;1.00;;;;;;5077374;28;20500;-82
2022/10/18 04:03:53;;;;;;;3.30;3.10;;;17.40;1.00;;;;;;5080317;28;20445;-82
2022/10/18 04:06:21;;;;;;;4.00;3.37;;;17.40;1.00;;;;;;5080514;28;20859;-82
2022/10/18 04:08:49;;;;;;;3.73;3.43;;;17.40;1.00;;;;;;5081231;28;20587;-81
2022/10/18 04:11:17;;;;;;;5.80;4.00;;;17.30;13.80;;;;;;5078327;28;20449;-82
2022/10/18 04:13:47;;;;;;;4.37;3.93;;;17.30;99.90;;;;;;5083246;28;20509;-81
2022/10/18 04:16:15;;;;;;;3.63;3.33;;;17.30;99.90;;;;;;5083212;28;20544;-81
2022/10/18 04:18:43;;;;;;;3.70;3.50;;;17.30;46.30;;;;;;5084203;28;20485;-80
2022/10/18 04:21:11;;;;;;;4.07;3.47;;;17.30;99.90;;;;;;5083733;28;20512;-82
2022/10/18 04:23:39;;;;;;;3.70;3.40;;;17.20;99.90;;;;;;5082722;28;20467;-81
2022/10/18 04:26:07;;;;;;;3.63;3.33;;;17.30;99.90;;;;;;5082311;28;20583;-82
2022/10/18 04:28:38;;;;;;;4.17;3.67;;;17.30;99.90;;;;;;5075742;28;21655;-80
2022/10/18 04:31:08;;;;;;;7.67;4.17;;;17.20;99.90;;;;;;5081045;28;20481;-81
2022/10/18 04:33:36;;;;;;;4.17;3.87;;;17.10;1.00;;;;;;5080636;28;20462;-81
2022/10/18 04:36:05;;;;;;;3.80;3.50;;;17.00;99.90;;;;;;5079208;28;20476;-80
2022/10/18 04:38:33;;;;;;;4.70;4.00;;;16.90;1.00;;;;;;5081171;28;20514;-82
2022/10/18 04:41:01;;;;;;;4.27;3.97;;;16.90;99.90;;;;;;5080215;28;20478;-79
2022/10/18 04:43:30;;;;;;;6.87;4.40;;;16.70;1.00;;;;;;5085908;28;20447;-80
2022/10/18 04:45:58;;;;;;;4.77;4.37;;;16.60;99.90;;;;;;5077232;28;20847;-80
2022/10/18 04:48:27;;;;;;;4.63;3.77;;;16.50;31.80;;;;;;5083098;28;20958;-81
2022/10/18 04:50:55;;;;;;;4.63;4.30;;;16.50;99.90;;;;;;5078212;28;20468;-81
2022/10/18 04:53:23;;;;;;;4.40;4.10;;;16.50;99.90;;;;;;5083924;28;20475;-81
2022/10/18 04:55:51;;;;;;;5.77;4.10;;;16.50;36.10;;;;;;5075023;28;20463;-81
2022/10/18 04:58:19;;;;;;;4.20;3.70;;;16.40;1.00;;;;;;5080549;28;20449;-81
2022/10/18 05:00:48;;;;;;;4.03;3.43;;;16.40;27.10;;;;;;5079576;28;20483;-81
2022/10/18 05:03:17;;;;;;;4.53;4.20;;;16.70;99.90;;;;;;5073547;28;20559;-81
2022/10/18 05:05:46;;;;;;;4.43;3.67;;;16.80;79.10;;;;;;5081473;28;21020;-81
2022/10/18 05:08:30;;;;;;;4.00;3.80;;;16.90;99.90;;;;;;5081525;28;20477;-81
2022/10/18 05:10:58;;;;;;;5.67;4.17;;;17.00;99.90;;;;;;5075755;28;20538;-82
2022/10/18 05:13:26;;;;;;;5.60;4.40;;;16.90;1.00;;;;;;5078619;28;21319;-81
2022/10/18 05:15:54;;;;;;;4.30;4.00;;;16.90;99.90;;;;;;5080473;28;21172;-83
2022/10/18 05:18:22;;;;;;;5.20;4.80;;;17.00;1.00;;;;;;5080536;28;20510;-82
2022/10/18 05:20:52;;;;;;;4.97;4.50;;;17.10;1.00;;;;;;5079049;28;20574;-83
2022/10/18 05:23:20;;;;;;;7.60;4.23;;;17.10;1.00;;;;;;5078743;28;20446;-82
2022/10/18 05:25:48;;;;;;;9.63;4.33;;;17.00;1.00;;;;;;5084316;28;20469;-81
2022/10/18 05:28:17;;;;;;;6.30;3.97;;;17.00;1.00;;;;;;5080158;28;20483;-83
2022/10/18 05:31:07;;;;;;;4.80;4.30;;;17.00;1.00;;;;;;5081672;28;20488;-85
2022/10/18 05:33:35;;;;;;;5.20;4.67;;;17.00;1.00;;;;;;5086024;28;20547;-86
2022/10/18 05:36:05;;;;;;;4.33;3.93;;;17.00;99.90;;;;;;5088348;28;20546;-85
2022/10/18 05:38:33;;;;;;;4.13;3.80;;;16.80;99.90;;;;;;5085850;28;20487;-83
2022/10/18 05:41:06;;;;;;;4.97;4.60;;;16.70;99.90;;;;;;5090880;28;20565;-83
2022/10/18 05:43:34;;;;;;;6.40;3.83;;;16.60;99.90;;;;;;5086687;28;20458;-85
2022/10/18 05:46:03;;;;;;;3.90;3.60;;;16.70;28.90;;;;;;5084993;28;20448;-84
2022/10/18 05:48:31;;;;;;;4.67;4.37;;;16.90;99.90;;;;;;5084941;28;20779;-84
2022/10/18 05:51:00;;;;;;;5.40;4.90;;;16.70;1.00;;;;;;5089098;28;20564;-83
2022/10/18 05:53:30;;;;;;;9.50;4.37;;;16.60;99.90;;;;;;5086859;28;20997;-82
2022/10/18 05:56:04;;;;;;;5.50;4.67;;;16.50;1.00;;;;;;5083367;28;20848;-82
2022/10/18 05:58:33;;;;;;;4.53;4.10;;;16.40;99.90;;;;;;5083526;28;20448;-85
2022/10/18 06:01:02;;;;;;;6.27;4.70;;;16.40;99.90;;;;;;5088113;28;20475;-87
2022/10/18 06:03:30;;;;;;;4.50;4.20;;;16.30;1.00;;;;;;5088462;28;20546;-82
2022/10/18 06:06:01;;;;;;;9.10;4.70;;;16.30;1.00;;;;;;5083516;28;21112;-82
2022/10/18 06:08:31;;;;;;;4.30;4.00;;;16.20;99.90;;;;;;5086290;28;20491;-84
2022/10/18 06:10:59;;;;;;;5.50;4.63;;;16.20;99.90;;;;;;5082884;28;20558;-85
2022/10/18 06:13:27;;;;;;;6.93;5.17;;;16.30;1.00;;;;;;5085657;28;20467;-85
2022/10/18 06:15:59;;;;;;;5.63;4.70;;;16.40;99.90;;;;;;5087725;28;20452;-85
2022/10/18 06:18:28;;;;;;;9.83;4.90;;;16.50;99.90;;;;;;5088024;28;20454;-83
2022/10/18 06:20:58;;;;;;;7.63;4.40;;;16.40;45.60;;;;;;5086438;28;20897;-83
2022/10/18 06:23:26;;;;;;;5.90;4.83;;;16.40;1.00;;;;;;5086544;28;20440;-83
2022/10/18 06:25:58;;;;;;;4.60;4.30;;;16.40;99.90;;;;;;5089583;28;20574;-83
2022/10/18 06:28:27;;;;;;;4.87;4.50;;;16.40;99.90;;;;;;5084296;28;20569;-82
2022/10/18 06:30:55;;;;;;;6.43;4.80;;;16.40;99.90;;;;;;5087403;28;20476;-83
2022/10/18 06:33:24;;;;;;;5.57;5.07;;;16.50;99.90;;;;;;5088398;28;21232;-82
2022/10/18 06:35:57;;;;;;;5.43;4.93;;;16.70;99.90;;;;;;5087514;28;20784;-84
2022/10/18 06:38:26;;;;;;;6.10;4.37;;;16.90;1.00;;;;;;5085807;28;20526;-83
2022/10/18 06:40:56;;;;;;;7.67;4.50;;;17.00;99.90;;;;;;5087397;28;20471;-83
2022/10/18 06:43:25;;;;;;;4.63;4.23;;;17.00;99.90;;;;;;5091368;28;20531;-84
2022/10/18 06:45:53;;;;;;;4.83;4.43;;;17.10;1.00;;;;;;5084342;28;20476;-84
2022/10/18 06:48:22;;;;;;;7.57;4.63;;;17.20;1.00;;;;;;5086872;28;20479;-83
2022/10/18 06:50:55;;;;;;;5.43;4.90;;;17.30;1.00;;;;;;5087720;28;20998;-83
2022/10/18 06:53:24;;;;;;;7.23;4.67;;;17.30;99.90;;;;;;5088586;28;20457;-83
2022/10/18 06:55:52;;;;;;;5.47;4.97;;;17.30;99.90;;;;;;5086487;28;20464;-83
2022/10/18 06:58:22;;;;;;;4.90;4.50;;;17.40;99.90;;;;;;5084268;28;20481;-82
2022/10/18 07:00:50;;;;;;;4.57;4.13;;;17.50;99.90;;;;;;5090351;28;21232;-83
2022/10/18 07:03:18;;;;;;;4.57;4.17;;;17.50;99.90;;;;;;5083263;28;20540;-83
2022/10/18 07:05:46;;;;;;;8.23;5.10;;;17.60;1.00;;;;;;5085093;28;20493;-83
2022/10/18 07:08:14;;;;;;;4.70;4.40;;;17.70;1.00;;;;;;5083868;28;20982;-83
2022/10/18 07:10:42;;;;;;;9.13;4.77;;;17.70;1.00;;;;;;5087796;28;20485;-85
2022/10/18 07:13:10;;;;;;;4.30;4.00;;;17.70;1.00;;;;;;5092093;28;20465;-84
2022/10/18 07:16:05;;;;;;;5.77;4.67;;;17.70;1.00;;;;;;5086545;28;20488;-83
2022/10/18 07:18:34;;;;;;;5.53;5.03;;;17.70;1.00;;;;;;5088885;28;20510;-82
2022/10/18 07:21:03;;;;;;;5.73;5.10;;;17.80;1.00;;;;;;5085350;28;20480;-82
2022/10/18 07:23:33;;;;;;;5.30;4.90;;;17.80;1.00;;;;;;5087242;28;20465;-84
2022/10/18 07:26:01;;;;;;;4.83;4.43;;;17.80;1.00;;;;;;5085796;28;20461;-84
2022/10/18 07:28:29;;;;;;;8.30;5.00;;;17.80;1.00;;;;;;5083746;28;20505;-83
2022/10/18 07:31:03;;;;;;;5.00;4.60;;;17.90;1.00;;;;;;5082862;28;20564;-83
2022/10/18 07:33:36;;;;;;;7.27;4.83;;;17.90;1.00;;;;;;5087031;28;20510;-82
2022/10/18 07:36:06;;;;;;;5.33;4.93;;;17.90;1.00;;;;;;5085004;28;21185;-83
2022/10/18 07:38:35;;;;;;;4.50;4.20;;;17.90;1.00;;;;;;5083402;28;20449;-84
2022/10/18 07:41:06;;;;;;;9.07;4.63;;;18.00;1.00;;;;;;5086842;28;20464;-83
2022/10/18 07:43:35;;;;;;;4.50;4.20;;;18.10;1.00;;;;;;5084761;28;20488;-83
2022/10/18 07:46:05;;;;;;;4.70;4.30;;;18.10;1.00;;;;;;5086581;28;20674;-83
2022/10/18 07:48:34;;;;;;;4.63;4.33;;;18.10;1.00;;;;;;5086082;28;20474;-83
2022/10/18 07:51:03;;;;;;;4.93;4.50;;;18.20;99.90;;;;;;5087323;28;20642;-82
2022/10/18 07:53:33;;;;;;;5.20;4.77;;;18.30;99.90;;;;;;5084285;28;20476;-83
2022/10/18 07:56:02;;;;;;;4.47;4.17;;;18.40;99.90;;;;;;5084870;28;20496;-84
2022/10/18 07:58:36;;;;;;;5.53;4.50;;;18.40;99.90;;;;;;5087079;28;20453;-82
2022/10/18 08:01:05;;;;;;;10.07;4.80;;;18.50;1.00;;;;;;5085544;28;20498;-82
2022/10/18 08:03:35;;;;;;;4.83;4.63;;;18.50;99.90;;;;;;5087335;28;20449;-83
2022/10/18 08:06:04;;;;;;;4.83;4.43;;;18.50;99.90;;;;;;5087106;28;20449;-83
2022/10/18 08:08:32;;;;;;;5.03;4.73;;;18.60;99.90;;;;;;5088060;28;20519;-83
2022/10/18 08:11:02;;;;;;;5.60;5.10;;;18.70;92.60;;;;;;5088068;28;20846;-83
2022/10/18 08:13:30;;;;;;;6.77;6.13;;;18.70;99.90;;;;;;5087141;28;20526;-83
2022/10/18 08:16:03;;;;;;;5.63;5.23;;;18.60;99.90;;;;;;5088270;28;20981;-82
2022/10/18 08:18:31;;;;;;;9.63;5.87;;;18.70;99.90;;;;;;5087453;28;20465;-83
2022/10/18 08:21:01;;;;;;;11.67;5.17;;;18.70;1.00;;;;;;5085323;28;21040;-82
2022/10/18 08:23:30;;;;;;;5.00;4.70;;;18.70;99.90;;;;;;5087599;28;20453;-84
2022/10/18 08:26:02;;;;;;;6.57;5.67;;;18.70;99.90;;;;;;5084668;28;21006;-83
2022/10/18 08:28:30;;;;;;;7.57;6.10;;;18.70;99.90;;;;;;5086225;28;20556;-84
2022/10/18 08:31:01;;;;;;;6.77;5.83;;;18.80;99.90;;;;;;5087817;28;20519;-83
2022/10/18 08:33:29;;;;;;;6.53;5.90;;;18.90;1.00;;;;;;5087877;28;20462;-86
2022/10/18 08:35:59;;;;;;;7.40;5.77;;;19.10;1.00;;;;;;5087507;28;20454;-84
2022/10/18 08:38:31;;;;;;;15.97;7.07;;;19.20;99.90;;;;;;5089825;28;20478;-84
2022/10/18 08:41:00;;;;;;;9.90;6.67;;;19.30;99.90;;;;;;5105164;28;20830;-83
2022/10/18 08:43:34;;;;;;;6.47;5.97;;;19.70;1.00;;;;;;5087186;28;21022;-86
2022/10/18 08:46:03;;;;;;;5.80;5.30;;;20.50;99.90;;;;;;5090980;28;20455;-83
2022/10/18 08:48:36;;;;;;;7.10;5.40;;;22.30;1.00;;;;;;5086394;28;20476;-84
2022/10/18 08:51:13;;;;;;;7.13;6.30;;;23.40;1.00;;;;;;5086602;28;20561;-83
2022/10/18 08:53:51;;;;;;;5.53;5.20;;;24.60;1.00;;;;;;5088339;28;20457;-85
2022/10/18 08:56:23;;;;;;;8.43;6.30;;;24.10;99.90;;;;;;5080760;28;20991;-84
2022/10/18 08:58:51;;;;;;;6.50;4.90;;;23.80;99.90;;;;;;5087531;28;20956;-87
2022/10/18 09:01:30;;;;;;;4.30;3.90;;;24.70;99.90;;;;;;5089097;28;20956;-84
2022/10/18 09:04:09;;;;;;;6.50;5.13;;;26.00;99.90;;;;;;5089118;28;20524;-84
2022/10/18 09:06:44;;;;;;;5.17;4.70;;;26.40;99.90;;;;;;5083667;28;20450;-85
2022/10/18 09:09:25;;;;;;;5.03;4.43;;;27.40;99.90;;;;;;5083790;28;20484;-83
2022/10/18 09:12:02;;;;;;;4.57;4.27;;;28.10;99.90;;;;;;5085395;28;20456;-84
2022/10/18 09:14:44;;;;;;;5.17;3.40;;;28.50;99.90;;;;;;5086258;28;20434;-84
2022/10/18 09:17:24;;;;;;;3.93;3.73;;;28.90;99.90;;;;;;5086808;28;20485;-84
2022/10/18 09:20:11;;;;;;;6.80;4.50;;;29.30;99.90;;;;;;5084980;28;20812;-84
2022/10/18 09:22:51;;;;;;;3.93;3.60;;;30.10;99.90;;;;;;5083286;28;20453;-84
2022/10/18 09:25:22;;;;;;;5.70;3.33;;;30.10;99.90;;;;;;5088213;28;20964;-84
2022/10/18 09:27:53;;;;;;;4.73;3.00;;;30.20;99.90;;;;;;5086408;28;20485;-85
2022/10/18 09:30:41;;;;;;;4.10;3.50;;;30.50;99.90;;;;;;5083384;28;20487;-85
2022/10/18 09:33:32;;;;;;;5.63;3.90;;;29.10;99.90;;;;;;5085649;28;20461;-85
2022/10/18 09:36:03;;;;;;;4.00;3.80;;;27.20;99.90;;;;;;5087185;28;20451;-83
2022/10/18 09:38:37;;;;;;;4.83;3.97;;;25.90;99.90;;;;;;5082682;28;21161;-83
2022/10/18 09:41:10;;;;;;;5.47;4.23;;;25.50;99.90;;;;;;5084503;28;20575;-83
2022/10/18 09:43:47;;;;;;;4.10;3.80;;;26.00;99.90;;;;;;5086933;28;20455;-84
2022/10/18 09:46:16;;;;;;;4.30;3.90;;;26.60;99.90;;;;;;5083095;28;20909;-86
2022/10/18 09:48:49;;;;;;;4.50;4.10;;;27.10;99.90;;;;;;5084837;28;20577;-84
2022/10/18 09:51:21;;;;;;;3.83;3.63;;;27.20;99.90;;;;;;5084352;28;20502;-83
2022/10/18 09:54:12;;;;;;;4.40;4.00;;;27.60;99.90;;;;;;5083700;28;20560;-83
2022/10/18 09:56:47;;;;;;;4.43;4.00;;;28.20;99.90;;;;;;5079636;28;20493;-84
2022/10/18 09:59:37;;;;;;;4.27;3.87;;;28.80;99.90;;;;;;5085129;28;20459;-84
2022/10/18 10:02:05;;;;;;;3.70;3.40;;;28.40;99.90;;;;;;5083369;28;20446;-84
2022/10/18 10:04:34;;;;;;;3.43;3.20;;;28.50;99.90;;;;;;5079937;28;20527;-84
2022/10/18 10:07:02;;;;;;;3.93;3.13;;;29.10;99.90;;;;;;5082266;28;20480;-84
2022/10/18 10:09:36;;;;;;;3.50;3.30;;;28.30;99.90;;;;;;5085736;28;20481;-84
2022/10/18 10:12:23;;;;;;;5.17;4.07;;;27.40;99.90;;;;;;5085572;28;20536;-84
2022/10/18 10:14:51;;;;;;;3.90;3.70;;;27.50;99.90;;;;;;5084093;28;20445;-84
2022/10/18 10:17:23;;;;;;;3.73;3.10;;;30.60;99.90;;;;;;5085050;28;20450;-84
2022/10/18 10:19:58;;;;;;;2.87;2.67;;;31.20;99.90;;;;;;5083011;28;20842;-84
2022/10/18 10:22:35;;;;;;;3.93;3.57;;;28.80;99.90;;;;;;5086485;28;20529;-83
2022/10/18 10:25:05;;;;;;;3.53;3.23;;;27.10;99.90;;;;;;5087087;28;20453;-83
2022/10/18 10:27:42;;;;;;;3.33;3.03;;;26.10;99.90;;;;;;5089057;28;20471;-84
2022/10/18 10:30:23;;;;;;;5.80;3.13;;;25.30;99.90;;;;;;5091353;28;20492;-84
2022/10/18 10:32:53;;;;;;;7.17;4.80;;;25.00;99.90;;;;;;5083815;28;20446;-84
2022/10/18 10:35:23;;;;;;;4.80;4.13;;;24.90;99.90;;;;;;5084135;28;20591;-88
2022/10/18 10:38:23;;;;;;;4.13;3.70;;;25.00;99.90;;;;;;5085741;28;20439;-82
2022/10/18 10:40:51;;;;;;;4.83;4.40;;;25.00;99.90;;;;;;5093659;28;20468;-86
2022/10/18 10:43:24;;;;;;;4.20;3.90;;;25.70;99.90;;;;;;5090857;28;20461;-84
2022/10/18 10:46:09;;;;;;;4.77;3.83;;;29.00;99.90;;;;;;5088827;28;20454;-84
2022/10/18 10:48:52;;;;;;;4.20;3.90;;;29.10;99.90;;;;;;5082430;28;21223;-84
2022/10/18 10:51:41;;;;;;;5.00;4.23;;;26.80;99.90;;;;;;5083844;28;20522;-82
2022/10/18 10:54:15;;;;;;;7.13;3.60;;;25.40;99.90;;;;;;5091193;28;20444;-81
2022/10/18 10:56:54;;;;;;;5.57;4.00;;;24.70;99.90;;;;;;5085198;28;20508;-83
2022/10/18 10:59:26;;;;;;;4.90;3.97;;;24.40;99.90;;;;;;5089898;28;20477;-84
2022/10/18 11:02:19;;;;;;;3.97;3.50;;;24.20;99.90;;;;;;5093226;28;21000;-82
2022/10/18 11:04:48;;;;;;;4.07;3.77;;;24.00;99.90;;;;;;5089928;28;20503;-81
2022/10/18 11:07:23;;;;;;;4.13;3.83;;;23.90;99.90;;;;;;5086860;28;20439;-81
2022/10/18 11:10:01;;;;;;;3.77;3.57;;;23.70;99.90;;;;;;5087394;28;20564;-83
2022/10/18 11:12:33;;;;;;;4.00;3.70;;;23.50;99.90;;;;;;5084940;28;20526;-84
2022/10/18 11:15:20;;;;;;;4.30;3.90;;;23.50;99.90;;;;;;5088449;28;20471;-82
2022/10/18 11:18:02;;;;;;;4.90;4.40;;;23.30;99.90;;;;;;5084242;28;20500;-83
2022/10/18 11:20:35;;;;;;;7.00;4.60;;;23.20;99.90;;;;;;5086916;28;20515;-83
2022/10/18 11:23:07;;;;;;;4.17;3.87;;;23.50;99.90;;;;;;5082002;28;22342;-87
2022/10/18 11:26:02;;;;;;;3.37;3.07;;;23.60;99.90;;;;;;5086970;28;20489;-82
2022/10/18 11:28:55;;;;;;;4.97;3.20;;;23.70;99.90;;;;;;5085049;28;20539;-83
2022/10/18 11:31:30;;;;;;;3.13;2.93;;;23.80;99.90;;;;;;5081901;28;21022;-82
2022/10/18 11:34:23;;;;;;;4.47;3.00;;;23.60;99.90;;;;;;5086782;28;20499;-83
2022/10/18 11:36:58;;;;;;;3.10;2.83;;;23.30;99.90;;;;;;5079760;28;20469;-86
2022/10/18 11:39:57;;;;;;;3.53;2.97;;;23.30;99.90;;;;;;5081983;28;20508;-83
2022/10/18 11:42:32;;;;;;;2.90;2.70;;;23.30;99.90;;;;;;5082706;28;21002;-82
2022/10/18 11:45:21;;;;;;;2.60;2.40;;;23.50;99.90;;;;;;5088847;28;20498;-84
2022/10/18 11:47:58;;;;;;;4.83;2.93;;;23.60;99.90;;;;;;5084428;28;20845;-83
2022/10/18 11:50:32;;;;;;;2.43;2.23;;;23.60;99.90;;;;;;5088289;28;20480;-83
2022/10/18 11:53:12;;;;;;;2.60;2.17;;;23.50;99.90;;;;;;5089106;28;20525;-83
2022/10/18 11:55:49;;;;;;;3.57;2.20;;;23.40;99.90;;;;;;5082825;28;20481;-83
2022/10/18 11:58:34;;;;;;;3.27;2.30;;;23.20;99.90;;;;;;5080194;28;20491;-85
2022/10/18 12:01:08;;;;;;;3.60;2.40;;;23.10;99.90;;;;;;5088418;28;21048;-83
2022/10/18 12:03:49;;;;;;;2.60;2.07;;;23.10;99.90;;;;;;5089208;28;20458;-85
2022/10/18 12:06:22;;;;;;;4.63;2.40;;;22.90;99.90;;;;;;5092279;28;21017;-83
2022/10/18 12:08:53;;;;;;;4.37;2.20;;;22.90;99.90;;;;;;5088158;28;20489;-82
2022/10/18 12:11:26;;;;;;;3.30;2.50;;;23.20;99.90;;;;;;5090085;28;20471;-83
2022/10/18 12:13:57;;;;;;;2.60;2.50;;;23.30;99.90;;;;;;5093044;28;20455;-81
2022/10/18 12:16:29;;;;;;;4.70;2.00;;;23.50;99.90;;;;;;5092036;28;20450;-85
2022/10/18 12:19:22;;;;;;;2.20;2.03;;;23.40;99.90;;;;;;5097703;28;20503;-83
2022/10/18 12:21:57;;;;;;;2.10;1.90;;;23.30;99.90;;;;;;5096152;28;20457;-83
2022/10/18 12:24:28;;;;;;;2.10;2.00;;;23.20;99.90;;;;;;5087753;28;20458;-84
2022/10/18 12:26:59;;;;;;;2.10;1.90;;;22.90;99.90;;;;;;5093050;28;20481;-82
2022/10/18 12:29:33;;;;;;;2.53;2.10;;;22.90;99.90;;;;;;5095708;28;20480;-83
2022/10/18 12:32:08;;;;;;;2.57;1.93;;;22.90;99.90;;;;;;5098114;28;20498;-82
2022/10/18 12:34:43;;;;;;;2.13;2.03;;;22.90;99.90;;;;;;5087567;28;20454;-83
2022/10/18 12:37:30;;;;;;;2.00;1.90;;;22.80;99.90;;;;;;5087862;28;20537;-82
2022/10/18 12:40:02;;;;;;;3.37;2.10;;;22.70;99.90;;;;;;5093264;28;20599;-84
2022/10/18 12:42:46;;;;;;;2.47;1.57;;;22.70;99.90;;;;;;5092079;28;20520;-81
2022/10/18 12:45:31;;;;;;;2.03;1.93;;;22.60;99.90;;;;;;5088927;28;20480;-84
2022/10/18 12:48:02;;;;;;;1.70;1.60;;;22.60;99.90;;;;;;5094730;28;20458;-82
2022/10/18 12:50:35;;;;;;;1.43;1.43;;;22.50;99.90;;;;;;5087299;28;20459;-83
2022/10/18 12:53:07;;;;;;;4.83;1.73;;;22.60;99.90;;;;;;5086396;28;20566;-82
2022/10/18 12:55:37;;;;;;;1.70;1.60;;;22.60;99.90;;;;;;5082786;28;20462;-82
2022/10/18 12:58:30;;;;;;;1.80;1.70;;;22.60;99.90;;;;;;5087921;28;20935;-84
2022/10/18 13:01:06;;;;;;;1.77;1.67;;;22.50;99.90;;;;;;5091683;28;20481;-83
2022/10/18 13:03:55;;;;;;;2.33;1.60;;;22.50;99.90;;;;;;5084118;28;20458;-82
2022/10/18 13:06:24;;;;;;;2.50;2.10;;;22.40;99.90;;;;;;5087707;28;20864;-82
2022/10/18 13:09:16;;;;;;;3.10;2.00;;;22.40;99.90;;;;;;5088047;28;20454;-82
2022/10/18 13:11:45;;;;;;;3.03;2.17;;;22.40;99.90;;;;;;5089719;28;20489;-84
2022/10/18 13:14:30;;;;;;;4.73;2.20;;;22.30;99.90;;;;;;5092449;28;20464;-82
2022/10/18 13:17:04;;;;;;;3.47;2.20;;;22.20;99.90;;;;;;5083513;28;20603;-81
2022/10/18 13:19:40;;;;;;;3.33;2.53;;;22.30;1.00;;;;;;5086630;28;20484;-82